createdAt,value
2018-06-20T00:00:55.563Z,17.67
2018-06-20T00:03:25.945Z,17.90
2018-06-20T00:05:56.733Z,17.50
2018-06-20T00:08:27.355Z,16.70
2018-06-20T00:10:57.752Z,18.50
2018-06-20T00:13:28.292Z,18.20
2018-06-20T00:15:59.116Z,19.63
2018-06-20T00:18:29.586Z,17.87
2018-06-20T00:21:00.330Z,18.17
2018-06-20T00:23:30.309Z,17.97
2018-06-20T00:26:00.676Z,25.37
2018-06-20T00:28:31.202Z,27.50
2018-06-20T00:31:01.586Z,27.90
2018-06-20T00:33:32.158Z,23.83
2018-06-20T00:36:03.042Z,28.70
2018-06-20T00:38:33.779Z,30.17
2018-06-20T00:41:04.145Z,26.67
2018-06-20T00:43:34.623Z,22.17
2018-06-20T00:46:05.419Z,27.80
2018-06-20T00:48:35.944Z,24.63
2018-06-20T00:51:06.473Z,25.63
2018-06-20T00:53:36.885Z,24.50
2018-06-20T00:56:18.137Z,24.77
2018-06-20T00:58:48.909Z,23.43
2018-06-20T01:01:19.602Z,28.43
2018-06-20T01:03:49.924Z,23.43
2018-06-20T01:06:19.949Z,26.80
2018-06-20T01:08:54.553Z,24.30
2018-06-20T01:11:25.281Z,28.63
2018-06-20T01:13:55.769Z,23.80
2018-06-20T01:16:25.716Z,24.47
2018-06-20T01:18:56.381Z,29.17
2018-06-20T01:21:26.731Z,25.03
2018-06-20T01:23:57.630Z,27.83
2018-06-20T01:26:28.022Z,25.43
2018-06-20T01:28:58.475Z,24.57
2018-06-20T01:31:29.058Z,25.70
2018-06-20T01:33:59.471Z,28.17
2018-06-20T01:36:29.976Z,29.20
2018-06-20T01:39:00.518Z,28.20
2018-06-20T01:41:31.108Z,28.93
2018-06-20T01:44:01.711Z,26.67
2018-06-20T01:46:32.183Z,30.90
2018-06-20T01:49:02.784Z,27.97
2018-06-20T01:51:33.186Z,28.20
2018-06-20T01:54:03.630Z,30.33
2018-06-20T01:56:34.323Z,29.30
2018-06-20T01:59:04.686Z,29.57
2018-06-20T02:01:35.518Z,32.40
2018-06-20T02:04:05.918Z,30.73
2018-06-20T02:06:35.854Z,31.73
2018-06-20T02:09:07.958Z,35.77
2018-06-20T02:11:37.792Z,35.27
2018-06-20T02:14:07.605Z,40.10
2018-06-20T02:16:37.854Z,36.53
2018-06-20T02:19:08.481Z,33.60
2018-06-20T02:21:39.119Z,28.37
2018-06-20T02:24:09.627Z,29.53
2018-06-20T02:26:40.234Z,34.20
2018-06-20T02:29:11.007Z,24.17
2018-06-20T02:31:41.638Z,31.40
2018-06-20T02:34:11.681Z,38.27
2018-06-20T02:36:42.051Z,35.33
2018-06-20T02:39:12.437Z,32.13
2018-06-20T02:41:42.868Z,30.90
2018-06-20T02:44:13.361Z,31.27
2018-06-20T02:46:43.744Z,30.03
2018-06-20T02:49:14.159Z,36.50
2018-06-20T02:51:44.607Z,35.73
2018-06-20T02:54:15.065Z,35.23
2018-06-20T02:56:45.079Z,38.53
2018-06-20T02:59:15.689Z,40.93
2018-06-20T03:01:46.162Z,38.60
2018-06-20T03:04:16.560Z,35.20
2018-06-20T03:06:46.504Z,32.20
2018-06-20T03:09:22.005Z,34.70
2018-06-20T03:11:52.430Z,36.67
2018-06-20T03:14:22.829Z,68.00
2018-06-20T03:16:53.292Z,47.67
2018-06-20T03:19:25.304Z,47.03
2018-06-20T03:21:55.894Z,48.37
2018-06-20T03:24:25.793Z,48.93
2018-06-20T03:26:56.682Z,46.83
2018-06-20T03:29:27.081Z,31.10
2018-06-20T03:31:57.635Z,36.40
2018-06-20T03:34:28.289Z,29.13
2018-06-20T03:36:58.138Z,37.83
2018-06-20T03:39:28.462Z,22.43
2018-06-20T03:41:58.886Z,24.73
2018-06-20T03:44:29.384Z,30.10
2018-06-20T03:46:59.765Z,31.97
2018-06-20T03:49:30.382Z,25.33
2018-06-20T03:52:00.914Z,28.73
2018-06-20T03:54:31.387Z,25.03
2018-06-20T03:57:01.156Z,29.70
2018-06-20T03:59:32.126Z,27.53
2018-06-20T04:02:02.405Z,32.60
2018-06-20T04:04:32.893Z,34.87
2018-06-20T04:07:03.323Z,42.50
2018-06-20T04:09:33.795Z,40.40
2018-06-20T04:12:04.301Z,37.23
2018-06-20T04:14:34.700Z,41.80
2018-06-20T04:17:04.517Z,46.90
2018-06-20T04:19:35.169Z,81.40
2018-06-20T04:22:05.655Z,70.37
2018-06-20T04:24:36.115Z,57.40
2018-06-20T04:27:06.586Z,38.60
2018-06-20T04:29:36.942Z,33.13
2018-06-20T04:32:07.637Z,35.57
2018-06-20T04:34:38.474Z,37.97
2018-06-20T04:37:09.001Z,32.60
2018-06-20T04:39:39.434Z,33.53
2018-06-20T04:42:09.832Z,28.53
2018-06-20T04:44:40.269Z,34.90
2018-06-20T04:47:10.786Z,33.60
2018-06-20T04:49:41.736Z,31.27
2018-06-20T04:52:12.225Z,32.10
2018-06-20T04:54:42.544Z,31.80
2018-06-20T04:57:12.962Z,35.83
2018-06-20T04:59:43.341Z,38.70
2018-06-20T05:02:14.004Z,39.93
2018-06-20T05:04:44.552Z,29.73
2018-06-20T05:07:15.497Z,35.93
2018-06-20T05:09:46.093Z,45.23
2018-06-20T05:12:16.481Z,37.37
2018-06-20T05:14:46.358Z,40.27
2018-06-20T05:17:16.673Z,39.87
2018-06-20T05:19:47.229Z,36.40
2018-06-20T05:22:17.641Z,38.00
2018-06-20T05:24:48.085Z,31.13
2018-06-20T05:27:18.562Z,29.13
2018-06-20T05:29:49.042Z,37.07
2018-06-20T05:32:19.552Z,38.70
2018-06-20T05:34:50.033Z,35.03
2018-06-20T05:37:20.529Z,38.63
2018-06-20T05:39:50.528Z,22.23
2018-06-20T05:42:20.810Z,57.63
2018-06-20T05:44:51.252Z,34.80
2018-06-20T05:47:21.703Z,42.57
2018-06-20T05:49:52.365Z,37.57
2018-06-20T05:52:22.863Z,31.57
2018-06-20T05:54:53.602Z,26.87
2018-06-20T05:57:24.197Z,26.77
2018-06-20T05:59:54.732Z,22.87
2018-06-20T06:02:25.173Z,24.63
2018-06-20T06:04:55.627Z,22.93
2018-06-20T06:07:25.436Z,22.50
2018-06-20T06:09:56.482Z,15.07
2018-06-20T06:12:26.419Z,15.20
2018-06-20T06:14:56.773Z,16.97
2018-06-20T06:17:27.130Z,15.73
2018-06-20T06:19:57.661Z,19.83
2018-06-20T06:22:28.325Z,16.97
2018-06-20T06:24:58.757Z,17.87
2018-06-20T06:27:29.275Z,25.50
2018-06-20T06:29:59.811Z,26.83
2018-06-20T06:32:30.177Z,44.07
2018-06-20T06:35:00.697Z,19.23
2018-06-20T06:37:31.220Z,24.50
2018-06-20T06:40:01.177Z,17.33
2018-06-20T06:42:31.657Z,14.70
2018-06-20T06:45:02.126Z,13.57
2018-06-20T06:47:32.950Z,19.33
2018-06-20T06:50:03.448Z,22.43
2018-06-20T06:52:33.997Z,17.47
2018-06-20T06:55:04.514Z,16.40
2018-06-20T06:57:35.042Z,17.87
2018-06-20T07:00:05.812Z,25.63
2018-06-20T07:02:36.351Z,10.83
2018-06-20T07:05:06.833Z,34.40
2018-06-20T07:07:37.330Z,25.57
2018-06-20T07:10:07.671Z,22.83
2018-06-20T07:12:38.330Z,21.70
2018-06-20T07:15:08.713Z,27.27
2018-06-20T07:17:39.365Z,20.30
2018-06-20T07:20:10.126Z,15.63
2018-06-20T07:22:40.457Z,24.27
2018-06-20T07:25:10.969Z,27.00
2018-06-20T07:27:41.598Z,17.80
2018-06-20T07:30:12.199Z,18.60
2018-06-20T07:32:42.828Z,27.30
2018-06-20T07:35:13.358Z,19.77
2018-06-20T07:37:44.458Z,20.60
2018-06-20T07:40:14.345Z,32.77
2018-06-20T07:42:44.674Z,32.27
2018-06-20T07:45:15.351Z,21.07
2018-06-20T07:47:46.011Z,24.80
2018-06-20T07:50:16.538Z,14.27
2018-06-20T07:52:46.948Z,10.37
2018-06-20T07:55:17.540Z,12.17
2018-06-20T07:57:48.095Z,11.47
2018-06-20T08:00:23.133Z,37.63
2018-06-20T08:03:09.195Z,16.30
2018-06-20T08:05:44.717Z,21.07
2018-06-20T08:08:20.299Z,27.60
2018-06-20T08:10:55.666Z,19.37
2018-06-20T08:13:31.579Z,13.13
2018-06-20T08:16:06.981Z,36.37
2018-06-20T08:18:42.768Z,25.50
2018-06-20T08:21:13.665Z,20.53
2018-06-20T08:23:44.129Z,11.03
2018-06-20T08:26:14.722Z,12.17
2018-06-20T08:28:51.945Z,15.10
2018-06-20T08:31:25.388Z,24.37
2018-06-20T08:33:57.354Z,16.30
2018-06-20T08:36:28.622Z,22.27
2018-06-20T08:38:59.776Z,47.17
2018-06-20T08:41:31.080Z,10.50
2018-06-20T08:44:01.673Z,11.63
2018-06-20T08:46:33.042Z,9.43
2018-06-20T08:49:04.122Z,15.90
2018-06-20T08:51:35.254Z,12.90
2018-06-20T08:54:06.587Z,22.07
2018-06-20T08:56:37.231Z,20.43
2018-06-20T08:59:08.621Z,24.80
2018-06-20T09:01:40.119Z,16.23
2018-06-20T09:04:15.534Z,30.97
2018-06-20T09:06:51.055Z,23.13
2018-06-20T09:09:26.226Z,22.47
2018-06-20T09:12:01.796Z,12.43
2018-06-20T09:14:36.554Z,19.00
2018-06-20T09:17:16.559Z,28.63
2018-06-20T09:19:50.470Z,25.63
2018-06-20T09:22:21.657Z,33.80
2018-06-20T09:24:53.778Z,31.97
2018-06-20T09:27:25.702Z,31.37
2018-06-20T09:29:57.685Z,23.37
2018-06-20T09:32:29.942Z,22.43
2018-06-20T09:35:02.383Z,20.23
2018-06-20T09:37:32.849Z,26.00
2018-06-20T09:40:03.357Z,26.03
2018-06-20T09:42:33.899Z,27.47
2018-06-20T09:45:04.361Z,14.07
2018-06-20T09:47:35.027Z,14.23
2018-06-20T09:50:10.675Z,22.77
2018-06-20T09:52:41.220Z,19.87
2018-06-20T09:55:11.634Z,10.83
2018-06-20T09:57:42.070Z,18.07
2018-06-20T10:01:20.171Z,19.13
2018-06-20T10:03:55.735Z,17.80
2018-06-20T10:06:31.153Z,21.73
2018-06-20T10:09:06.503Z,17.33
2018-06-20T10:11:41.984Z,18.13
2018-06-20T10:14:14.578Z,24.00
2018-06-20T10:16:45.271Z,14.67
2018-06-20T10:19:16.620Z,9.97
2018-06-20T10:21:47.216Z,15.60
2018-06-20T10:24:17.650Z,14.57
2018-06-20T10:26:48.179Z,14.90
2018-06-20T10:29:18.649Z,13.40
2018-06-20T10:31:49.351Z,15.53
2018-06-20T10:34:20.230Z,13.10
2018-06-20T10:36:50.772Z,15.23
2018-06-20T10:39:20.514Z,16.03
2018-06-20T10:41:51.141Z,21.33
2018-06-20T10:44:21.554Z,16.63
2018-06-20T10:46:56.981Z,14.30
2018-06-20T10:49:27.629Z,14.93
2018-06-20T10:51:58.927Z,23.23
2018-06-20T10:54:29.427Z,13.67
2018-06-20T10:57:04.941Z,6.43
2018-06-20T10:59:40.329Z,10.33
2018-06-20T11:02:15.898Z,27.23
2018-06-20T11:04:52.030Z,14.23
2018-06-20T11:08:26.408Z,31.33
2018-06-20T11:11:02.235Z,39.07
2018-06-20T11:13:33.010Z,15.97
2018-06-20T11:16:03.613Z,24.80
2018-06-20T11:18:36.126Z,32.10
2018-06-20T11:21:06.898Z,11.47
2018-06-20T11:23:37.545Z,14.37
2018-06-20T11:26:07.959Z,11.33
2018-06-20T11:28:38.641Z,21.37
2018-06-20T11:31:09.126Z,21.50
2018-06-20T11:33:39.769Z,10.23
2018-06-20T11:36:10.209Z,14.67
2018-06-20T11:38:40.678Z,15.47
2018-06-20T11:41:11.187Z,22.90
2018-06-20T11:43:41.675Z,15.87
2018-06-20T11:46:17.203Z,21.07
2018-06-20T11:48:47.702Z,20.33
2018-06-20T11:51:18.113Z,29.20
2018-06-20T11:53:48.765Z,10.63
2018-06-20T11:56:19.339Z,13.57
2018-06-20T11:58:54.383Z,23.77
2018-06-20T12:01:29.799Z,10.37
2018-06-20T12:04:05.266Z,11.07
2018-06-20T12:06:40.913Z,14.93
2018-06-20T12:09:16.421Z,10.47
2018-06-20T12:11:51.929Z,27.87
2018-06-20T12:14:27.462Z,15.13
2018-06-20T12:16:57.095Z,21.80
2018-06-20T12:19:32.543Z,56.50
2018-06-20T12:22:08.326Z,26.60
2018-06-20T12:24:43.901Z,20.87
2018-06-20T12:27:19.031Z,21.00
2018-06-20T12:29:54.319Z,24.17
2018-06-20T12:32:29.908Z,19.17
2018-06-20T12:35:05.536Z,17.27
2018-06-20T12:37:40.937Z,27.40
2018-06-20T12:40:14.450Z,16.87
2018-06-20T12:43:47.852Z,19.87
2018-06-20T12:46:24.507Z,52.47
2018-06-20T12:48:55.169Z,18.77
2018-06-20T12:51:25.704Z,11.77
2018-06-20T12:53:56.203Z,17.53
2018-06-20T12:56:26.816Z,21.87
2018-06-20T12:58:57.306Z,12.87
2018-06-20T13:01:36.941Z,10.70
2018-06-20T13:04:10.310Z,19.87
2018-06-20T13:06:41.432Z,15.07
2018-06-20T13:09:13.540Z,22.90
2018-06-20T13:11:44.507Z,14.67
2018-06-20T13:14:15.674Z,16.13
2018-06-20T13:16:47.081Z,30.63
2018-06-20T13:19:18.528Z,21.43
2018-06-20T13:21:49.161Z,17.87
2018-06-20T13:24:20.942Z,16.80
2018-06-20T13:26:51.956Z,35.00
2018-06-20T13:29:23.710Z,14.37
2018-06-20T13:31:59.431Z,6.57
2018-06-20T13:34:34.919Z,21.23
2018-06-20T13:37:10.553Z,5.13
2018-06-20T13:39:45.975Z,8.77
2018-06-20T13:42:21.282Z,5.60
2018-06-20T13:44:51.870Z,10.20
2018-06-20T13:47:27.259Z,8.57
2018-06-20T13:49:58.746Z,22.17
2018-06-20T13:52:29.374Z,7.13
2018-06-20T13:54:59.826Z,17.73
2018-06-20T13:57:30.274Z,28.83
2018-06-20T14:00:00.226Z,11.27
2018-06-20T14:02:31.134Z,13.27
2018-06-20T14:05:02.282Z,25.23
2018-06-20T14:07:32.805Z,29.47
2018-06-20T14:10:03.507Z,20.00
2018-06-20T14:12:34.092Z,14.70
2018-06-20T14:15:04.580Z,22.53
2018-06-20T14:17:34.994Z,14.00
2018-06-20T14:20:10.071Z,29.77
2018-06-20T14:22:41.015Z,16.73
2018-06-20T14:25:11.591Z,17.10
2018-06-20T14:27:41.348Z,23.40
2018-06-20T14:30:11.723Z,65.83
2018-06-20T14:32:47.193Z,32.17
2018-06-20T14:35:22.495Z,33.33
2018-06-20T14:37:58.078Z,19.67
2018-06-20T14:40:33.429Z,15.17
2018-06-20T14:43:08.957Z,21.17
2018-06-20T14:45:44.189Z,18.27
2018-06-20T14:48:14.768Z,16.33
2018-06-20T14:50:45.202Z,28.53
2018-06-20T14:53:14.988Z,40.60
2018-06-20T14:55:45.617Z,18.77
2018-06-20T14:58:16.169Z,21.73
2018-06-20T15:00:46.860Z,19.80
2018-06-20T15:03:17.442Z,17.63
2018-06-20T15:05:54.116Z,16.80
2018-06-20T15:08:24.510Z,15.07
2018-06-20T15:10:55.019Z,12.33
2018-06-20T15:13:25.507Z,13.60
2018-06-20T15:15:56.096Z,11.67
2018-06-20T15:18:26.477Z,13.77
2018-06-20T15:20:56.916Z,20.90
2018-06-20T15:23:27.467Z,18.37
2018-06-20T15:26:02.922Z,11.27
2018-06-20T15:28:38.374Z,7.87
2018-06-20T15:31:13.759Z,15.47
2018-06-20T15:33:49.293Z,18.47
2018-06-20T15:36:24.727Z,68.77
2018-06-20T15:38:55.222Z,34.77
2018-06-20T15:41:25.786Z,26.90
2018-06-20T15:43:56.194Z,35.20
2018-06-20T15:46:26.669Z,27.50
2018-06-20T15:48:57.230Z,13.37
2018-06-20T15:51:27.715Z,24.93
2018-06-20T15:53:58.327Z,22.17
2018-06-20T15:56:28.814Z,26.77
2018-06-20T15:58:59.387Z,13.97
2018-06-20T16:01:29.969Z,16.37
2018-06-20T16:04:00.665Z,17.27
2018-06-20T16:06:31.073Z,84.30
2018-06-20T16:09:06.779Z,50.83
2018-06-20T16:11:37.238Z,37.03
2018-06-20T16:14:07.991Z,34.37
2018-06-20T16:16:38.444Z,53.33
2018-06-20T16:19:13.822Z,35.50
2018-06-20T16:21:49.258Z,29.47
2018-06-20T16:24:24.732Z,27.13
2018-06-20T16:27:00.102Z,14.50
2018-06-20T16:29:35.569Z,18.13
2018-06-20T16:32:06.005Z,18.50
2018-06-20T16:34:36.402Z,19.90
2018-06-20T16:37:06.862Z,21.30
2018-06-20T16:39:37.713Z,19.93
2018-06-20T16:42:08.171Z,19.63
2018-06-20T16:44:38.734Z,21.53
2018-06-20T16:47:09.428Z,27.23
2018-06-20T16:49:39.926Z,33.23
2018-06-20T16:52:10.331Z,33.50
2018-06-20T16:54:42.239Z,48.90
2018-06-20T16:57:13.039Z,30.63
2018-06-20T16:59:43.881Z,24.07
2018-06-20T17:02:19.351Z,25.77
2018-06-20T17:04:49.969Z,16.77
2018-06-20T17:07:20.914Z,21.57
2018-06-20T17:09:51.334Z,16.90
2018-06-20T17:12:26.712Z,26.83
2018-06-20T17:15:02.281Z,15.87
2018-06-20T17:17:38.291Z,13.17
2018-06-20T17:20:13.867Z,17.10
2018-06-20T17:22:49.324Z,33.97
2018-06-20T17:25:25.390Z,30.60
2018-06-20T17:27:55.753Z,27.37
2018-06-20T17:30:26.397Z,30.87
2018-06-20T17:32:56.822Z,30.40
2018-06-20T17:35:27.383Z,16.27
2018-06-20T17:37:57.913Z,31.07
2018-06-20T17:40:28.506Z,22.73
2018-06-20T18:33:03.698Z,13.53
2018-06-20T18:35:36.105Z,11.30
2018-06-20T18:38:08.064Z,14.97
2018-06-20T18:40:38.990Z,13.23
2018-06-20T18:43:16.213Z,15.60
2018-06-20T18:45:46.686Z,16.27
2018-06-20T18:48:22.116Z,34.93
2018-06-20T18:50:52.723Z,33.07
2018-06-20T18:53:24.971Z,17.33
2018-06-20T18:55:55.710Z,57.60
2018-06-20T18:58:31.406Z,23.70
2018-06-20T19:01:10.730Z,13.73
2018-06-20T19:03:46.898Z,15.17
2018-06-20T19:06:22.413Z,16.60
2018-06-20T19:08:59.579Z,16.33
2018-06-20T19:11:32.615Z,14.33
2018-06-20T19:14:04.439Z,19.40
2018-06-20T19:16:35.110Z,19.27
2018-06-20T19:19:05.120Z,15.20
2018-06-20T19:21:35.888Z,16.90
2018-06-20T19:24:06.332Z,14.83
2018-06-20T19:26:36.987Z,15.50
2018-06-20T19:29:07.441Z,23.70
2018-06-20T19:31:38.510Z,19.90
2018-06-20T19:34:10.140Z,16.87
2018-06-20T19:36:44.259Z,15.47
2018-06-20T19:39:20.893Z,13.57
2018-06-20T19:41:55.398Z,21.73
2018-06-20T19:44:31.312Z,17.83
2018-06-20T19:47:07.142Z,15.90
2018-06-20T19:49:42.312Z,11.77
2018-06-20T19:52:13.817Z,17.27
2018-06-20T19:54:46.828Z,10.93
2018-06-20T19:57:19.587Z,17.77
2018-06-20T19:59:53.875Z,20.80
2018-06-20T20:02:30.988Z,15.73
2018-06-20T20:05:04.411Z,12.80
2018-06-20T20:07:36.406Z,13.33
2018-06-20T20:10:09.681Z,14.23
2018-06-20T20:12:46.048Z,13.27
2018-06-20T20:15:19.295Z,13.07
2018-06-20T20:17:51.275Z,18.70
2018-06-20T20:20:23.786Z,13.53
2018-06-20T20:22:57.467Z,13.37
2018-06-20T20:25:29.810Z,20.30
2018-06-20T20:28:02.073Z,16.27
2018-06-20T20:30:33.693Z,23.03
2018-06-20T20:33:06.672Z,21.53
2018-06-20T20:35:38.183Z,30.73
2018-06-20T20:38:10.131Z,30.03
2018-06-20T20:40:42.215Z,19.57
2018-06-20T20:43:13.528Z,43.43
2018-06-20T20:45:45.673Z,50.97
2018-06-20T20:48:17.634Z,30.33
2018-06-20T20:50:49.236Z,23.70
2018-06-20T20:53:24.267Z,21.90
2018-06-20T20:55:58.222Z,25.73
2018-06-20T20:58:29.333Z,22.93
2018-06-20T21:01:09.613Z,22.53
2018-06-20T21:03:43.294Z,23.33
2018-06-20T21:06:14.113Z,23.37
2018-06-20T21:08:47.069Z,20.37
2018-06-20T21:11:17.216Z,18.90
2018-06-20T21:13:48.923Z,20.13
2018-06-20T21:16:20.477Z,13.43
2018-06-20T21:18:52.084Z,13.53
2018-06-20T21:21:25.432Z,12.70
2018-06-20T21:23:56.283Z,17.57
2018-06-20T21:26:26.630Z,16.30
2018-06-20T21:28:57.074Z,16.30
2018-06-20T21:31:27.404Z,14.93
2018-06-20T21:33:57.792Z,15.33
2018-06-20T21:36:28.199Z,19.13
2018-06-20T21:38:58.679Z,19.97
2018-06-20T21:41:29.010Z,21.53
2018-06-20T21:43:59.357Z,18.33
2018-06-20T21:46:29.881Z,20.00
2018-06-20T21:49:00.478Z,22.57
2018-06-20T21:51:30.955Z,19.80
2018-06-20T21:54:01.352Z,22.50
2018-06-20T21:56:32.169Z,21.47
2018-06-20T21:59:02.809Z,19.73
2018-06-20T22:01:33.445Z,17.03
2018-06-20T22:04:04.360Z,25.13
2018-06-20T22:06:34.795Z,18.13
2018-06-20T22:09:07.466Z,23.97
2018-06-20T22:11:38.000Z,14.33
2018-06-20T22:14:09.754Z,14.03
2018-06-20T22:16:40.085Z,11.90
2018-06-20T22:19:10.550Z,12.57
2018-06-20T22:21:41.047Z,9.17
2018-06-20T22:24:11.433Z,11.10
2018-06-20T22:26:41.802Z,13.10
2018-06-20T22:29:12.525Z,19.27
2018-06-20T22:31:42.930Z,71.57
2018-06-20T22:34:12.823Z,89.07
2018-06-20T22:36:43.038Z,89.83
2018-06-20T22:39:13.321Z,76.80
2018-06-20T22:41:43.758Z,94.27
2018-06-20T22:44:14.308Z,41.80
2018-06-20T22:46:44.622Z,39.40
2018-06-20T22:49:15.059Z,79.90
2018-06-20T22:51:45.558Z,102.47
2018-06-20T22:54:15.987Z,111.17
2018-06-20T22:56:46.421Z,97.80
2018-06-20T22:59:16.829Z,77.53
2018-06-20T23:01:47.266Z,57.27
2018-06-20T23:04:17.757Z,22.07
2018-06-20T23:06:48.087Z,19.80
2018-06-20T23:09:18.630Z,15.07
2018-06-20T23:11:50.107Z,12.73
2018-06-20T23:14:20.522Z,15.13
2018-06-20T23:16:50.929Z,14.67
2018-06-20T23:19:21.791Z,12.80
2018-06-20T23:21:52.419Z,11.73
2018-06-20T23:24:22.902Z,13.20
2018-06-20T23:26:53.315Z,13.23
2018-06-20T23:29:23.893Z,9.43
2018-06-20T23:31:54.378Z,10.30
2018-06-20T23:34:24.773Z,10.53
2018-06-20T23:36:55.129Z,12.10
2018-06-20T23:39:25.923Z,10.30
2018-06-20T23:41:56.243Z,14.10
2018-06-20T23:44:26.671Z,12.67
2018-06-20T23:46:57.258Z,11.70
2018-06-20T23:49:27.042Z,11.30
2018-06-20T23:51:57.429Z,12.13
2018-06-20T23:54:27.975Z,12.30
2018-06-20T23:56:58.470Z,14.90
2018-06-20T23:59:28.904Z,18.47
